sensor_id;sensor_type;location;lat;lon;timestamp;pressure;altitude;pressure_sealevel;temperature;humidity
37202;BME280;37799;52.390;6.136;2023-08-31T00:01:49;100721.19;;;11.07;100.00
37202;BME280;37799;52.390;6.136;2023-08-31T00:04:14;100712.66;;;11.02;100.00
37202;BME280;37799;52.390;6.136;2023-08-31T00:06:43;100705.69;;;11.04;100.00
37202;BME280;37799;52.390;6.136;2023-08-31T00:09:11;100702.94;;;11.10;100.00
37202;BME280;37799;52.390;6.136;2023-08-31T00:11:36;100704.72;;;11.08;100.00
37202;BME280;37799;52.390;6.136;2023-08-31T00:14:02;100697.75;;;11.10;100.00
37202;BME280;37799;52.390;6.136;2023-08-31T00:16:27;100703.03;;;11.07;100.00
37202;BME280;37799;52.390;6.136;2023-08-31T00:18:53;100701.72;;;11.22;100.00
37202;BME280;37799;52.390;6.136;2023-08-31T00:21:20;100704.06;;;11.30;100.00
37202;BME280;37799;52.390;6.136;2023-08-31T00:23:46;100695.69;;;11.21;100.00
37202;BME280;37799;52.390;6.136;2023-08-31T00:26:11;100699.88;;;11.26;100.00
37202;BME280;37799;52.390;6.136;2023-08-31T00:28:36;100700.56;;;11.31;100.00
37202;BME280;37799;52.390;6.136;2023-08-31T00:31:02;100707.13;;;11.42;100.00
37202;BME280;37799;52.390;6.136;2023-08-31T00:33:31;100707.97;;;11.43;100.00
37202;BME280;37799;52.390;6.136;2023-08-31T00:36:01;100711.34;;;11.45;100.00
37202;BME280;37799;52.390;6.136;2023-08-31T00:38:29;100703.44;;;11.49;100.00
37202;BME280;37799;52.390;6.136;2023-08-31T00:40:54;100714.78;;;11.47;100.00
37202;BME280;37799;52.390;6.136;2023-08-31T00:43:20;100714.56;;;11.53;100.00
37202;BME280;37799;52.390;6.136;2023-08-31T00:45:50;100712.13;;;11.48;100.00
37202;BME280;37799;52.390;6.136;2023-08-31T00:48:17;100709.38;;;11.53;100.00
37202;BME280;37799;52.390;6.136;2023-08-31T00:50:44;100708.88;;;11.42;100.00
37202;BME280;37799;52.390;6.136;2023-08-31T00:53:09;100715.50;;;11.50;100.00
37202;BME280;37799;52.390;6.136;2023-08-31T00:55:34;100713.09;;;11.44;100.00
37202;BME280;37799;52.390;6.136;2023-08-31T00:58:00;100715.66;;;11.46;100.00
37202;BME280;37799;52.390;6.136;2023-08-31T01:00:33;100725.22;;;11.44;100.00
37202;BME280;37799;52.390;6.136;2023-08-31T01:03:06;100719.19;;;11.43;100.00
37202;BME280;37799;52.390;6.136;2023-08-31T01:05:40;100718.34;;;11.43;100.00
37202;BME280;37799;52.390;6.136;2023-08-31T01:08:33;100734.69;;;11.45;100.00
37202;BME280;37799;52.390;6.136;2023-08-31T01:11:11;100731.22;;;11.46;100.00
37202;BME280;37799;52.390;6.136;2023-08-31T01:13:40;100734.69;;;11.45;100.00
37202;BME280;37799;52.390;6.136;2023-08-31T01:16:08;100727.75;;;11.45;100.00
37202;BME280;37799;52.390;6.136;2023-08-31T01:18:34;100740.69;;;11.47;100.00
37202;BME280;37799;52.390;6.136;2023-08-31T01:23:50;100720.94;;;11.43;100.00
37202;BME280;37799;52.390;6.136;2023-08-31T01:26:16;100726.63;;;11.54;100.00
37202;BME280;37799;52.390;6.136;2023-08-31T01:28:42;100724.28;;;11.46;100.00
37202;BME280;37799;52.390;6.136;2023-08-31T01:31:07;100719.13;;;11.46;100.00
37202;BME280;37799;52.390;6.136;2023-08-31T01:33:34;100723.44;;;11.46;100.00
37202;BME280;37799;52.390;6.136;2023-08-31T01:36:01;100723.34;;;11.49;100.00
37202;BME280;37799;52.390;6.136;2023-08-31T01:38:30;100704.25;;;11.51;100.00
37202;BME280;37799;52.390;6.136;2023-08-31T01:41:07;100704.28;;;11.50;100.00
37202;BME280;37799;52.390;6.136;2023-08-31T01:43:33;100700.91;;;11.48;100.00
37202;BME280;37799;52.390;6.136;2023-08-31T01:46:00;100703.56;;;11.46;100.00
37202;BME280;37799;52.390;6.136;2023-08-31T01:48:25;100688.84;;;11.47;100.00
37202;BME280;37799;52.390;6.136;2023-08-31T01:50:51;100694.81;;;11.49;100.00
37202;BME280;37799;52.390;6.136;2023-08-31T01:53:16;100691.50;;;11.44;100.00
37202;BME280;37799;52.390;6.136;2023-08-31T01:55:41;100685.53;;;11.42;100.00
37202;BME280;37799;52.390;6.136;2023-08-31T01:58:06;100693.25;;;11.43;100.00
37202;BME280;37799;52.390;6.136;2023-08-31T02:00:32;100679.78;;;11.32;100.00
37202;BME280;37799;52.390;6.136;2023-08-31T02:03:02;100678.09;;;11.31;100.00
37202;BME280;37799;52.390;6.136;2023-08-31T02:05:27;100679.78;;;11.32;100.00
37202;BME280;37799;52.390;6.136;2023-08-31T02:07:52;100687.72;;;11.28;100.00
37202;BME280;37799;52.390;6.136;2023-08-31T02:10:18;100694.53;;;11.30;100.00
37202;BME280;37799;52.390;6.136;2023-08-31T02:12:43;100687.81;;;11.25;100.00
37202;BME280;37799;52.390;6.136;2023-08-31T02:15:09;100687.19;;;11.16;100.00
37202;BME280;37799;52.390;6.136;2023-08-31T02:17:35;100688.81;;;11.20;100.00
37202;BME280;37799;52.390;6.136;2023-08-31T02:20:00;100684.50;;;11.19;100.00
37202;BME280;37799;52.390;6.136;2023-08-31T02:22:29;100684.69;;;11.13;100.00
37202;BME280;37799;52.390;6.136;2023-08-31T02:24:55;100682.25;;;11.09;100.00
37202;BME280;37799;52.390;6.136;2023-08-31T02:27:20;100683.94;;;11.10;100.00
37202;BME280;37799;52.390;6.136;2023-08-31T02:29:45;100700.72;;;11.26;100.00
37202;BME280;37799;52.390;6.136;2023-08-31T02:32:11;100694.97;;;11.16;100.00
37202;BME280;37799;52.390;6.136;2023-08-31T02:34:36;100701.41;;;11.03;100.00
37202;BME280;37799;52.390;6.136;2023-08-31T02:37:01;100695.44;;;11.01;100.00
37202;BME280;37799;52.390;6.136;2023-08-31T02:39:26;100688.81;;;10.91;100.00
37202;BME280;37799;52.390;6.136;2023-08-31T02:41:52;100685.16;;;10.98;100.00
37202;BME280;37799;52.390;6.136;2023-08-31T02:44:17;100685.97;;;11.00;100.00
37202;BME280;37799;52.390;6.136;2023-08-31T02:46:42;100685.88;;;11.03;100.00
37202;BME280;37799;52.390;6.136;2023-08-31T02:49:08;100684.06;;;11.05;100.00
37202;BME280;37799;52.390;6.136;2023-08-31T02:51:33;100683.91;;;11.11;100.00
37202;BME280;37799;52.390;6.136;2023-08-31T02:53:58;100687.56;;;11.04;100.00
37202;BME280;37799;52.390;6.136;2023-08-31T02:56:24;100682.31;;;11.07;100.00
37202;BME280;37799;52.390;6.136;2023-08-31T02:58:49;100681.47;;;11.05;100.00
37202;BME280;37799;52.390;6.136;2023-08-31T03:01:15;100681.25;;;11.13;100.00
37202;BME280;37799;52.390;6.136;2023-08-31T03:03:42;100690.09;;;11.07;100.00
37202;BME280;37799;52.390;6.136;2023-08-31T03:06:08;100692.56;;;11.10;100.00
37202;BME280;37799;52.390;6.136;2023-08-31T03:08:37;100693.84;;;10.97;100.00
37202;BME280;37799;52.390;6.136;2023-08-31T03:11:04;100689.50;;;10.98;100.00
37202;BME280;37799;52.390;6.136;2023-08-31T03:13:33;100691.28;;;10.96;100.00
37202;BME280;37799;52.390;6.136;2023-08-31T03:15:59;100683.47;;;10.97;100.00
37202;BME280;37799;52.390;6.136;2023-08-31T03:18:25;100697.38;;;10.95;100.00
37202;BME280;37799;52.390;6.136;2023-08-31T03:20:51;100695.88;;;10.86;100.00
37202;BME280;37799;52.390;6.136;2023-08-31T03:23:16;100693.31;;;10.86;100.00
37202;BME280;37799;52.390;6.136;2023-08-31T03:25:41;100698.34;;;10.90;100.00
37202;BME280;37799;52.390;6.136;2023-08-31T03:28:07;100693.94;;;10.94;100.00
37202;BME280;37799;52.390;6.136;2023-08-31T03:30:33;100692.16;;;10.96;100.00
37202;BME280;37799;52.390;6.136;2023-08-31T03:32:59;100700.44;;;11.07;100.00
37202;BME280;37799;52.390;6.136;2023-08-31T03:35:25;100694.47;;;11.04;100.00
37202;BME280;37799;52.390;6.136;2023-08-31T03:37:54;100696.06;;;11.09;100.00
37202;BME280;37799;52.390;6.136;2023-08-31T03:40:20;100700.47;;;11.06;100.00
37202;BME280;37799;52.390;6.136;2023-08-31T03:42:45;100707.88;;;11.18;100.00
37202;BME280;37799;52.390;6.136;2023-08-31T03:45:11;100695.63;;;11.23;100.00
37202;BME280;37799;52.390;6.136;2023-08-31T03:47:36;100692.72;;;11.34;100.00
37202;BME280;37799;52.390;6.136;2023-08-31T03:50:02;100694.22;;;11.41;100.00
37202;BME280;37799;52.390;6.136;2023-08-31T03:52:27;100695.09;;;11.40;100.00
37202;BME280;37799;52.390;6.136;2023-08-31T03:54:53;100688.38;;;11.34;100.00
37202;BME280;37799;52.390;6.136;2023-08-31T03:57:18;100695.31;;;11.34;100.00
37202;BME280;37799;52.390;6.136;2023-08-31T03:59:43;100686.81;;;11.29;100.00
37202;BME280;37799;52.390;6.136;2023-08-31T04:02:09;100688.59;;;11.27;100.00
37202;BME280;37799;52.390;6.136;2023-08-31T04:04:34;100685.13;;;11.28;100.00
37202;BME280;37799;52.390;6.136;2023-08-31T04:07:00;100691.91;;;11.32;100.00
37202;BME280;37799;52.390;6.136;2023-08-31T04:09:25;100697.22;;;11.27;100.00
37202;BME280;37799;52.390;6.136;2023-08-31T04:11:51;100704.84;;;11.32;100.00
37202;BME280;37799;52.390;6.136;2023-08-31T04:14:16;100707.03;;;11.17;100.00
37202;BME280;37799;52.390;6.136;2023-08-31T04:16:43;100701.66;;;11.23;100.00
37202;BME280;37799;52.390;6.136;2023-08-31T04:19:09;100713.63;;;11.28;100.00
37202;BME280;37799;52.390;6.136;2023-08-31T04:21:34;100716.63;;;11.42;100.00
37202;BME280;37799;52.390;6.136;2023-08-31T04:24:01;100726.00;;;11.47;100.00
37202;BME280;37799;52.390;6.136;2023-08-31T04:26:26;100722.56;;;11.47;100.00
37202;BME280;37799;52.390;6.136;2023-08-31T04:28:53;100723.94;;;11.57;100.00
37202;BME280;37799;52.390;6.136;2023-08-31T04:31:18;100723.34;;;11.49;100.00
37202;BME280;37799;52.390;6.136;2023-08-31T04:33:45;100722.41;;;11.51;100.00
37202;BME280;37799;52.390;6.136;2023-08-31T04:36:10;100726.34;;;11.63;100.00
37202;BME280;37799;52.390;6.136;2023-08-31T04:38:37;100727.13;;;11.65;100.00
37202;BME280;37799;52.390;6.136;2023-08-31T04:41:03;100714.97;;;11.67;100.00
37202;BME280;37799;52.390;6.136;2023-08-31T04:43:28;100717.44;;;11.70;100.00
37202;BME280;37799;52.390;6.136;2023-08-31T04:45:55;100726.63;;;11.82;100.00
37202;BME280;37799;52.390;6.136;2023-08-31T04:48:20;100726.06;;;11.72;100.00
37202;BME280;37799;52.390;6.136;2023-08-31T04:50:46;100723.50;;;11.71;100.00
37202;BME280;37799;52.390;6.136;2023-08-31T04:53:11;100727.25;;;11.62;100.00
37202;BME280;37799;52.390;6.136;2023-08-31T04:55:37;100725.72;;;11.55;100.00
37202;BME280;37799;52.390;6.136;2023-08-31T04:58:03;100722.19;;;11.58;100.00
37202;BME280;37799;52.390;6.136;2023-08-31T05:00:29;100717.78;;;11.61;100.00
37202;BME280;37799;52.390;6.136;2023-08-31T05:02:55;100721.16;;;11.63;100.00
37202;BME280;37799;52.390;6.136;2023-08-31T05:05:21;100726.25;;;11.66;100.00
37202;BME280;37799;52.390;6.136;2023-08-31T05:07:46;100726.94;;;11.71;100.00
37202;BME280;37799;52.390;6.136;2023-08-31T05:10:11;100730.63;;;11.64;100.00
37202;BME280;37799;52.390;6.136;2023-08-31T05:12:37;100739.91;;;11.71;100.00
37202;BME280;37799;52.390;6.136;2023-08-31T05:15:02;100737.50;;;11.65;100.00
37202;BME280;37799;52.390;6.136;2023-08-31T05:17:28;100747.69;;;11.71;100.00
37202;BME280;37799;52.390;6.136;2023-08-31T05:19:53;100750.09;;;11.77;100.00
37202;BME280;37799;52.390;6.136;2023-08-31T05:22:19;100754.38;;;11.80;100.00
37202;BME280;37799;52.390;6.136;2023-08-31T05:24:44;100761.69;;;11.94;100.00
37202;BME280;37799;52.390;6.136;2023-08-31T05:27:10;100765.00;;;11.99;100.00
37202;BME280;37799;52.390;6.136;2023-08-31T05:29:35;100760.97;;;11.90;100.00
37202;BME280;37799;52.390;6.136;2023-08-31T05:32:00;100764.97;;;12.00;100.00
37202;BME280;37799;52.390;6.136;2023-08-31T05:34:26;100769.38;;;11.97;100.00
37202;BME280;37799;52.390;6.136;2023-08-31T05:36:51;100769.47;;;11.94;100.00
37202;BME280;37799;52.390;6.136;2023-08-31T05:39:16;100775.47;;;11.96;100.00
37202;BME280;37799;52.390;6.136;2023-08-31T05:41:42;100776.53;;;11.90;100.00
37202;BME280;37799;52.390;6.136;2023-08-31T05:44:09;100782.34;;;11.97;100.00
37202;BME280;37799;52.390;6.136;2023-08-31T05:46:35;100778.84;;;11.98;100.00
37202;BME280;37799;52.390;6.136;2023-08-31T05:49:00;100792.53;;;12.03;100.00
37202;BME280;37799;52.390;6.136;2023-08-31T05:51:26;100795.94;;;12.05;100.00
37202;BME280;37799;52.390;6.136;2023-08-31T05:53:52;100786.00;;;12.18;100.00
37202;BME280;37799;52.390;6.136;2023-08-31T05:56:19;100798.19;;;12.16;100.00
37202;BME280;37799;52.390;6.136;2023-08-31T05:58:45;100787.13;;;12.09;100.00
37202;BME280;37799;52.390;6.136;2023-08-31T06:01:12;100802.31;;;12.21;100.00
37202;BME280;37799;52.390;6.136;2023-08-31T06:03:38;100797.47;;;12.37;100.00
37202;BME280;37799;52.390;6.136;2023-08-31T06:06:03;100802.03;;;12.55;100.00
37202;BME280;37799;52.390;6.136;2023-08-31T06:08:28;100804.34;;;12.63;100.00
37202;BME280;37799;52.390;6.136;2023-08-31T06:10:55;100805.53;;;12.79;100.00
37202;BME280;37799;52.390;6.136;2023-08-31T06:13:20;100808.69;;;12.87;100.00
37202;BME280;37799;52.390;6.136;2023-08-31T06:15:46;100813.22;;;13.06;100.00
37202;BME280;37799;52.390;6.136;2023-08-31T06:18:11;100817.56;;;13.30;100.00
37202;BME280;37799;52.390;6.136;2023-08-31T06:20:37;100823.31;;;13.38;100.00
37202;BME280;37799;52.390;6.136;2023-08-31T06:23:02;100826.53;;;13.67;100.00
37202;BME280;37799;52.390;6.136;2023-08-31T06:25:28;100826.38;;;13.93;100.00
37202;BME280;37799;52.390;6.136;2023-08-31T06:27:53;100832.81;;;14.27;100.00
37202;BME280;37799;52.390;6.136;2023-08-31T06:30:19;100832.38;;;14.59;100.00
37202;BME280;37799;52.390;6.136;2023-08-31T06:32:45;100835.00;;;14.58;100.00
37202;BME280;37799;52.390;6.136;2023-08-31T06:35:12;100838.59;;;14.55;100.00
37202;BME280;37799;52.390;6.136;2023-08-31T06:37:38;100846.94;;;14.63;100.00
37202;BME280;37799;52.390;6.136;2023-08-31T06:40:04;100846.28;;;14.79;100.00
37202;BME280;37799;52.390;6.136;2023-08-31T06:42:30;100842.53;;;14.86;100.00
37202;BME280;37799;52.390;6.136;2023-08-31T06:44:55;100836.47;;;15.04;100.00
37202;BME280;37799;52.390;6.136;2023-08-31T06:47:22;100838.63;;;15.33;100.00
37202;BME280;37799;52.390;6.136;2023-08-31T06:49:47;100840.78;;;15.63;100.00
37202;BME280;37799;52.390;6.136;2023-08-31T06:52:13;100840.44;;;16.07;100.00
37202;BME280;37799;52.390;6.136;2023-08-31T06:54:38;100844.91;;;16.39;100.00
37202;BME280;37799;52.390;6.136;2023-08-31T06:57:03;100848.94;;;16.81;100.00
37202;BME280;37799;52.390;6.136;2023-08-31T06:59:29;100846.72;;;17.06;100.00
37202;BME280;37799;52.390;6.136;2023-08-31T07:01:54;100865.44;;;17.32;100.00
37202;BME280;37799;52.390;6.136;2023-08-31T07:04:19;100856.06;;;16.60;100.00
37202;BME280;37799;52.390;6.136;2023-08-31T07:06:45;100862.69;;;16.14;100.00
37202;BME280;37799;52.390;6.136;2023-08-31T07:09:10;100866.72;;;15.85;100.00
37202;BME280;37799;52.390;6.136;2023-08-31T07:11:35;100858.59;;;15.72;100.00
37202;BME280;37799;52.390;6.136;2023-08-31T07:14:01;100863.91;;;15.52;100.00
37202;BME280;37799;52.390;6.136;2023-08-31T07:16:26;100865.56;;;15.34;100.00
37202;BME280;37799;52.390;6.136;2023-08-31T07:18:52;100868.25;;;15.32;100.00
37202;BME280;37799;52.390;6.136;2023-08-31T07:21:17;100870.91;;;15.12;100.00
37202;BME280;37799;52.390;6.136;2023-08-31T07:23:42;100866.47;;;14.94;100.00
37202;BME280;37799;52.390;6.136;2023-08-31T07:26:08;100866.69;;;14.89;100.00
37202;BME280;37799;52.390;6.136;2023-08-31T07:28:33;100876.41;;;14.86;100.00
37202;BME280;37799;52.390;6.136;2023-08-31T07:31:05;100878.22;;;14.84;100.00
37202;BME280;37799;52.390;6.136;2023-08-31T07:33:32;100881.34;;;15.12;100.00
37202;BME280;37799;52.390;6.136;2023-08-31T07:35:58;100875.72;;;15.59;100.00
37202;BME280;37799;52.390;6.136;2023-08-31T07:38:24;100881.53;;;15.84;100.00
37202;BME280;37799;52.390;6.136;2023-08-31T07:40:50;100885.34;;;16.49;100.00
37202;BME280;37799;52.390;6.136;2023-08-31T07:43:15;100891.91;;;17.26;100.00
37202;BME280;37799;52.390;6.136;2023-08-31T07:45:40;100887.91;;;17.36;100.00
37202;BME280;37799;52.390;6.136;2023-08-31T07:48:06;100899.81;;;17.08;100.00
37202;BME280;37799;52.390;6.136;2023-08-31T07:50:32;100890.81;;;16.62;100.00
37202;BME280;37799;52.390;6.136;2023-08-31T07:52:58;100887.78;;;16.35;100.00
37202;BME280;37799;52.390;6.136;2023-08-31T07:55:23;100896.81;;;16.11;100.00
37202;BME280;37799;52.390;6.136;2023-08-31T07:57:49;100890.03;;;15.89;100.00
37202;BME280;37799;52.390;6.136;2023-08-31T08:00:14;100896.34;;;16.03;100.00
37202;BME280;37799;52.390;6.136;2023-08-31T08:02:40;100901.03;;;16.49;100.00
37202;BME280;37799;52.390;6.136;2023-08-31T08:05:06;100907.81;;;17.38;100.00
37202;BME280;37799;52.390;6.136;2023-08-31T08:07:31;100906.72;;;17.91;100.00
37202;BME280;37799;52.390;6.136;2023-08-31T08:09:57;100907.56;;;18.23;100.00
37202;BME280;37799;52.390;6.136;2023-08-31T08:12:22;100916.25;;;18.24;100.00
37202;BME280;37799;52.390;6.136;2023-08-31T08:14:48;100931.22;;;18.06;100.00
37202;BME280;37799;52.390;6.136;2023-08-31T08:17:14;100923.38;;;17.75;100.00
37202;BME280;37799;52.390;6.136;2023-08-31T08:19:39;100926.00;;;17.75;100.00
37202;BME280;37799;52.390;6.136;2023-08-31T08:22:04;100930.19;;;17.77;100.00
37202;BME280;37799;52.390;6.136;2023-08-31T08:24:30;100931.84;;;17.62;100.00
37202;BME280;37799;52.390;6.136;2023-08-31T08:26:55;100935.44;;;17.93;100.00
37202;BME280;37799;52.390;6.136;2023-08-31T08:29:20;100931.34;;;18.50;100.00
37202;BME280;37799;52.390;6.136;2023-08-31T08:31:45;100925.50;;;18.91;100.00
37202;BME280;37799;52.390;6.136;2023-08-31T08:34:11;100928.16;;;19.05;100.00
37202;BME280;37799;52.390;6.136;2023-08-31T08:36:36;100932.13;;;18.82;100.00
37202;BME280;37799;52.390;6.136;2023-08-31T08:39:01;100935.50;;;18.84;100.00
37202;BME280;37799;52.390;6.136;2023-08-31T08:41:28;100936.94;;;18.90;100.00
37202;BME280;37799;52.390;6.136;2023-08-31T08:43:56;100940.41;;;18.91;100.00
37202;BME280;37799;52.390;6.136;2023-08-31T08:46:27;100940.41;;;18.91;100.00
37202;BME280;37799;52.390;6.136;2023-08-31T08:48:53;100940.22;;;18.94;100.00
37202;BME280;37799;52.390;6.136;2023-08-31T08:51:20;100937.28;;;19.28;100.00
37202;BME280;37799;52.390;6.136;2023-08-31T08:53:46;100943.53;;;19.40;100.00
37202;BME280;37799;52.390;6.136;2023-08-31T08:56:11;100937.06;;;19.45;100.00
37202;BME280;37799;52.390;6.136;2023-08-31T08:58:37;100947.88;;;19.84;100.00
37202;BME280;37799;52.390;6.136;2023-08-31T09:01:03;100953.63;;;20.44;100.00
37202;BME280;37799;52.390;6.136;2023-08-31T09:03:31;100953.75;;;20.95;100.00
37202;BME280;37799;52.390;6.136;2023-08-31T09:05:59;100954.19;;;20.49;100.00
37202;BME280;37799;52.390;6.136;2023-08-31T09:08:27;100960.50;;;20.86;100.00
37202;BME280;37799;52.390;6.136;2023-08-31T09:10:55;100971.41;;;21.45;100.00
37202;BME280;37799;52.390;6.136;2023-08-31T09:13:26;100964.44;;;21.57;100.00
37202;BME280;37799;52.390;6.136;2023-08-31T09:15:54;100971.59;;;21.68;100.00
37202;BME280;37799;52.390;6.136;2023-08-31T09:18:27;100965.50;;;21.67;100.00
37202;BME280;37799;52.390;6.136;2023-08-31T09:20:53;100969.53;;;21.97;100.00
37202;BME280;37799;52.390;6.136;2023-08-31T09:23:19;100969.44;;;21.86;100.00
37202;BME280;37799;52.390;6.136;2023-08-31T09:25:46;100971.75;;;22.16;100.00
37202;BME280;37799;52.390;6.136;2023-08-31T09:28:14;100971.53;;;22.43;100.00
37202;BME280;37799;52.390;6.136;2023-08-31T09:30:40;100972.38;;;22.78;100.00
37202;BME280;37799;52.390;6.136;2023-08-31T09:33:09;100966.47;;;22.99;100.00
37202;BME280;37799;52.390;6.136;2023-08-31T09:35:39;100965.94;;;23.51;100.00
37202;BME280;37799;52.390;6.136;2023-08-31T09:38:07;100981.78;;;23.40;100.00
37202;BME280;37799;52.390;6.136;2023-08-31T09:40:33;100977.66;;;23.13;100.00
37202;BME280;37799;52.390;6.136;2023-08-31T09:42:58;100984.69;;;23.37;100.00
37202;BME280;37799;52.390;6.136;2023-08-31T09:45:31;100978.44;;;23.49;100.00
37202;BME280;37799;52.390;6.136;2023-08-31T09:48:02;100976.91;;;23.80;100.00
37202;BME280;37799;52.390;6.136;2023-08-31T09:50:32;100976.97;;;23.22;100.00
37202;BME280;37799;52.390;6.136;2023-08-31T09:53:01;100984.81;;;22.89;100.00
37202;BME280;37799;52.390;6.136;2023-08-31T09:55:29;100989.06;;;22.07;100.00
37202;BME280;37799;52.390;6.136;2023-08-31T09:57:57;100986.66;;;21.15;100.00
37202;BME280;37799;52.390;6.136;2023-08-31T10:00:26;100994.91;;;20.71;100.00
37202;BME280;37799;52.390;6.136;2023-08-31T10:02:54;100990.06;;;20.09;100.00
37202;BME280;37799;52.390;6.136;2023-08-31T10:05:21;100987.69;;;19.19;100.00
37202;BME280;37799;52.390;6.136;2023-08-31T10:07:47;100975.00;;;18.67;100.00
37202;BME280;37799;52.390;6.136;2023-08-31T10:10:14;100979.13;;;18.71;100.00
37202;BME280;37799;52.390;6.136;2023-08-31T10:12:40;100987.34;;;18.34;100.00
37202;BME280;37799;52.390;6.136;2023-08-31T10:15:06;100986.06;;;18.09;100.00
37202;BME280;37799;52.390;6.136;2023-08-31T10:17:32;100986.06;;;18.09;100.00
37202;BME280;37799;52.390;6.136;2023-08-31T10:19:58;100996.97;;;18.33;100.00
37202;BME280;37799;52.390;6.136;2023-08-31T10:22:24;100996.22;;;18.47;100.00
37202;BME280;37799;52.390;6.136;2023-08-31T10:25:02;100995.88;;;18.99;100.00
37202;BME280;37799;52.390;6.136;2023-08-31T10:27:36;100995.59;;;19.33;100.00
37202;BME280;37799;52.390;6.136;2023-08-31T10:32:40;101008.84;;;18.40;100.00
37202;BME280;37799;52.390;6.136;2023-08-31T10:35:07;101005.44;;;18.07;100.00
37202;BME280;37799;52.390;6.136;2023-08-31T10:37:33;100999.63;;;17.68;100.00
37202;BME280;37799;52.390;6.136;2023-08-31T10:40:09;101002.94;;;17.55;100.00
37202;BME280;37799;52.390;6.136;2023-08-31T10:42:46;100998.41;;;17.58;100.00
37202;BME280;37799;52.390;6.136;2023-08-31T10:45:19;100999.53;;;18.03;100.00
37202;BME280;37799;52.390;6.136;2023-08-31T10:47:46;101004.63;;;18.38;100.00
37202;BME280;37799;52.390;6.136;2023-08-31T10:50:16;100994.94;;;19.30;100.00
37202;BME280;37799;52.390;6.136;2023-08-31T10:52:45;100987.94;;;19.73;100.00
37202;BME280;37799;52.390;6.136;2023-08-31T10:55:13;100987.25;;;20.12;100.00
37202;BME280;37799;52.390;6.136;2023-08-31T10:57:40;100995.91;;;20.68;100.00
37202;BME280;37799;52.390;6.136;2023-08-31T11:00:06;100988.78;;;21.23;100.00
37202;BME280;37799;52.390;6.136;2023-08-31T11:07:34;100987.75;;;21.38;100.00
37202;BME280;37799;52.390;6.136;2023-08-31T11:10:27;100987.50;;;21.92;100.00
37202;BME280;37799;52.390;6.136;2023-08-31T11:12:53;100993.38;;;22.08;100.00
37202;BME280;37799;52.390;6.136;2023-08-31T11:15:21;100985.88;;;22.15;100.00
37202;BME280;37799;52.390;6.136;2023-08-31T11:17:49;100990.19;;;22.63;100.00
37202;BME280;37799;52.390;6.136;2023-08-31T11:20:19;100990.72;;;23.04;100.00
37202;BME280;37799;52.390;6.136;2023-08-31T11:22:49;100988.97;;;22.56;100.00
37202;BME280;37799;52.390;6.136;2023-08-31T11:25:16;100994.63;;;22.63;100.00
37202;BME280;37799;52.390;6.136;2023-08-31T11:27:41;101001.16;;;22.46;100.00
37202;BME280;37799;52.390;6.136;2023-08-31T11:30:28;101002.59;;;22.26;100.00
37202;BME280;37799;52.390;6.136;2023-08-31T11:32:56;100986.84;;;22.01;100.00
37202;BME280;37799;52.390;6.136;2023-08-31T11:35:23;100984.13;;;21.90;100.00
37202;BME280;37799;52.390;6.136;2023-08-31T11:37:50;100988.38;;;21.29;100.00
37202;BME280;37799;52.390;6.136;2023-08-31T11:40:16;100991.06;;;21.14;100.00
37202;BME280;37799;52.390;6.136;2023-08-31T11:42:42;100987.31;;;20.79;100.00
37202;BME280;37799;52.390;6.136;2023-08-31T11:45:08;100990.72;;;20.54;100.00
37202;BME280;37799;52.390;6.136;2023-08-31T11:47:35;100998.88;;;20.22;100.00
37202;BME280;37799;52.390;6.136;2023-08-31T11:50:02;100993.38;;;19.98;100.00
37202;BME280;37799;52.390;6.136;2023-08-31T11:52:30;100993.75;;;19.78;100.00
37202;BME280;37799;52.390;6.136;2023-08-31T11:54:55;100994.16;;;19.58;100.00
37202;BME280;37799;52.390;6.136;2023-08-31T11:57:25;101001.09;;;19.14;100.00
37202;BME280;37799;52.390;6.136;2023-08-31T11:59:52;101011.84;;;18.80;100.00
37202;BME280;37799;52.390;6.136;2023-08-31T12:02:23;101002.78;;;18.85;100.00
37202;BME280;37799;52.390;6.136;2023-08-31T12:04:49;101001.59;;;19.50;100.00
37202;BME280;37799;52.390;6.136;2023-08-31T12:07:18;101004.72;;;19.99;100.00
37202;BME280;37799;52.390;6.136;2023-08-31T12:09:44;101000.34;;;20.68;100.00
37202;BME280;37799;52.390;6.136;2023-08-31T12:12:14;101007.34;;;21.46;100.00
37202;BME280;37799;52.390;6.136;2023-08-31T12:14:43;101007.41;;;21.96;100.00
37202;BME280;37799;52.390;6.136;2023-08-31T12:17:09;101012.31;;;22.50;100.00
37202;BME280;37799;52.390;6.136;2023-08-31T12:19:37;101007.16;;;22.72;100.00
37202;BME280;37799;52.390;6.136;2023-08-31T12:22:05;101011.31;;;22.63;100.00
37202;BME280;37799;52.390;6.136;2023-08-31T12:24:41;101017.84;;;22.47;100.00
37202;BME280;37799;52.390;6.136;2023-08-31T12:27:07;101016.84;;;22.24;100.00
37202;BME280;37799;52.390;6.136;2023-08-31T12:29:33;101012.81;;;21.82;100.00
37202;BME280;37799;52.390;6.136;2023-08-31T12:31:58;101020.16;;;21.13;100.00
37202;BME280;37799;52.390;6.136;2023-08-31T12:34:24;101015.59;;;20.63;100.00
37202;BME280;37799;52.390;6.136;2023-08-31T12:36:49;101012.28;;;20.32;100.00
37202;BME280;37799;52.390;6.136;2023-08-31T12:39:14;101015.88;;;20.02;100.00
37202;BME280;37799;52.390;6.136;2023-08-31T12:41:40;101012.97;;;19.79;100.00
37202;BME280;37799;52.390;6.136;2023-08-31T12:44:06;101011.41;;;19.62;100.00
37202;BME280;37799;52.390;6.136;2023-08-31T12:46:32;101025.66;;;19.86;100.00
37202;BME280;37799;52.390;6.136;2023-08-31T12:49:00;101027.09;;;20.47;100.00